Аэропорт: Казань. Казань

ICAO: UWKD

METAR:
2019-12-12 11:00:00
UWKD 121100Z 31002MPS 270V340 9999 BKN016 M05/M09 Q1026 R29/710045 NOSIG RMK QFE758/1011
METAR:
2019-12-12 08:00:00
TAF UWKD 120800Z 1209/1309 32003MPS 9999 SCT016 TXM04/1211Z TNM09/1303Z BECMG 1215/1217 23003MPS